sensor_id;sensor_type;location;lat;lon;timestamp;pressure;altitude;pressure_sealevel;temperature;humidity
46476;BME280;53376;51.114;14.738;2022-07-22T00:00:55;98653.94;;;27.65;43.20
46476;BME280;53376;51.114;14.738;2022-07-22T00:03:23;98647.84;;;27.63;43.22
46476;BME280;53376;51.114;14.738;2022-07-22T00:06:04;98654.34;;;27.62;43.38
46476;BME280;53376;51.114;14.738;2022-07-22T00:08:32;98653.50;;;27.61;43.11
46476;BME280;53376;51.114;14.738;2022-07-22T00:11:12;98654.75;;;27.59;43.16
46476;BME280;53376;51.114;14.738;2022-07-22T00:24:08;98665.13;;;27.48;43.46
46476;BME280;53376;51.114;14.738;2022-07-22T00:26:49;98653.59;;;27.46;43.26
46476;BME280;53376;51.114;14.738;2022-07-22T00:29:29;98663.19;;;27.42;43.06
46476;BME280;53376;51.114;14.738;2022-07-22T00:31:56;98660.44;;;27.42;43.59
46476;BME280;53376;51.114;14.738;2022-07-22T00:34:37;98657.09;;;27.40;43.20
46476;BME280;53376;51.114;14.738;2022-07-22T00:37:04;98661.53;;;27.41;43.27
46476;BME280;53376;51.114;14.738;2022-07-22T00:50:16;98655.69;;;27.29;43.72
46476;BME280;53376;51.114;14.738;2022-07-22T00:52:57;98660.50;;;27.27;43.79
46476;BME280;53376;51.114;14.738;2022-07-22T00:55:24;98655.25;;;27.26;44.08
46476;BME280;53376;51.114;14.738;2022-07-22T00:58:05;98656.28;;;27.25;44.20
46476;BME280;53376;51.114;14.738;2022-07-22T01:00:32;98649.13;;;27.24;43.99
46476;BME280;53376;51.114;14.738;2022-07-22T01:17:09;98654.63;;;27.09;44.43
46476;BME280;53376;51.114;14.738;2022-07-22T01:19:50;98638.22;;;27.02;44.61
46476;BME280;53376;51.114;14.738;2022-07-22T01:22:33;98645.13;;;26.98;44.61
46476;BME280;53376;51.114;14.738;2022-07-22T01:25:00;98645.94;;;26.98;44.90
46476;BME280;53376;51.114;14.738;2022-07-22T01:27:41;98641.31;;;26.99;44.87
46476;BME280;53376;51.114;14.738;2022-07-22T01:43:50;98654.16;;;26.83;44.94
46476;BME280;53376;51.114;14.738;2022-07-22T01:46:30;98649.09;;;26.80;44.74
46476;BME280;53376;51.114;14.738;2022-07-22T01:49:12;98660.00;;;26.80;45.08
46476;BME280;53376;51.114;14.738;2022-07-22T01:51:40;98664.50;;;26.73;45.12
46476;BME280;53376;51.114;14.738;2022-07-22T01:54:19;98665.91;;;26.69;45.01
46476;BME280;53376;51.114;14.738;2022-07-22T01:56:47;98659.81;;;26.67;45.21
46476;BME280;53376;51.114;14.738;2022-07-22T02:09:58;98665.44;;;26.65;45.50
46476;BME280;53376;51.114;14.738;2022-07-22T02:12:39;98672.13;;;26.63;45.45
46476;BME280;53376;51.114;14.738;2022-07-22T02:15:06;98663.31;;;26.61;45.33
46476;BME280;53376;51.114;14.738;2022-07-22T02:17:47;98669.78;;;26.60;45.71
46476;BME280;53376;51.114;14.738;2022-07-22T02:20:14;98658.63;;;26.54;45.51
46476;BME280;53376;51.114;14.738;2022-07-22T02:22:54;98667.34;;;26.50;45.94
46476;BME280;53376;51.114;14.738;2022-07-22T02:25:23;98670.28;;;26.48;45.68
46476;BME280;53376;51.114;14.738;2022-07-22T02:38:33;98673.09;;;26.40;45.86
46476;BME280;53376;51.114;14.738;2022-07-22T02:41:17;98670.56;;;26.38;46.06
46476;BME280;53376;51.114;14.738;2022-07-22T02:43:55;98670.72;;;26.37;45.63
46476;BME280;53376;51.114;14.738;2022-07-22T02:46:36;98675.91;;;26.32;46.10
46476;BME280;53376;51.114;14.738;2022-07-22T02:49:11;98676.28;;;26.29;45.98
46476;BME280;53376;51.114;14.738;2022-07-22T02:51:56;98680.03;;;26.28;46.27
46476;BME280;53376;51.114;14.738;2022-07-22T03:04:39;98679.47;;;26.17;46.26
46476;BME280;53376;51.114;14.738;2022-07-22T03:07:20;98682.56;;;26.14;46.30
46476;BME280;53376;51.114;14.738;2022-07-22T03:10:00;98684.47;;;26.14;46.16
46476;BME280;53376;51.114;14.738;2022-07-22T03:12:31;98690.06;;;26.12;46.37
46476;BME280;53376;51.114;14.738;2022-07-22T03:15:11;98685.66;;;26.11;46.28
46476;BME280;53376;51.114;14.738;2022-07-22T03:30:06;98694.25;;;26.00;46.37
46476;BME280;53376;51.114;14.738;2022-07-22T03:32:47;98704.31;;;25.99;46.94
46476;BME280;53376;51.114;14.738;2022-07-22T03:35:25;98696.31;;;25.98;46.60
46476;BME280;53376;51.114;14.738;2022-07-22T03:38:05;98708.25;;;25.97;46.64
46476;BME280;53376;51.114;14.738;2022-07-22T03:40:34;98712.66;;;25.98;46.67
46476;BME280;53376;51.114;14.738;2022-07-22T03:43:14;98713.03;;;25.95;46.94
46476;BME280;53376;51.114;14.738;2022-07-22T03:45:44;98706.91;;;25.92;46.47
46476;BME280;53376;51.114;14.738;2022-07-22T03:58:54;98706.31;;;25.82;46.75
46476;BME280;53376;51.114;14.738;2022-07-22T04:01:37;98705.66;;;25.80;46.74
46476;BME280;53376;51.114;14.738;2022-07-22T04:04:04;98701.28;;;25.79;46.77
46476;BME280;53376;51.114;14.738;2022-07-22T04:06:46;98713.19;;;25.78;46.82
46476;BME280;53376;51.114;14.738;2022-07-22T04:09:19;98714.00;;;25.79;46.90
46476;BME280;53376;51.114;14.738;2022-07-22T04:12:00;98705.66;;;25.80;46.56
46476;BME280;53376;51.114;14.738;2022-07-22T04:24:45;98714.94;;;25.71;47.19
46476;BME280;53376;51.114;14.738;2022-07-22T04:27:26;98714.25;;;25.69;46.97
46476;BME280;53376;51.114;14.738;2022-07-22T04:30:07;98712.56;;;25.68;47.01
46476;BME280;53376;51.114;14.738;2022-07-22T04:32:38;98704.59;;;25.66;47.35
46476;BME280;53376;51.114;14.738;2022-07-22T04:35:18;98711.94;;;25.66;47.18
46476;BME280;53376;51.114;14.738;2022-07-22T04:51:37;98718.75;;;25.62;47.20
46476;BME280;53376;51.114;14.738;2022-07-22T04:54:27;98721.47;;;25.62;47.37
46476;BME280;53376;51.114;14.738;2022-07-22T04:57:02;98711.63;;;25.61;47.56
46476;BME280;53376;51.114;14.738;2022-07-22T04:59:43;98712.28;;;25.63;47.10
46476;BME280;53376;51.114;14.738;2022-07-22T05:02:11;98719.59;;;25.62;47.34
46476;BME280;53376;51.114;14.738;2022-07-22T05:04:51;98708.34;;;25.65;46.99
46476;BME280;53376;51.114;14.738;2022-07-22T05:07:34;98714.94;;;25.71;46.68
46476;BME280;53376;51.114;14.738;2022-07-22T05:17:19;98708.56;;;25.79;47.24
46476;BME280;53376;51.114;14.738;2022-07-22T05:20:10;98700.34;;;25.87;46.83
46476;BME280;53376;51.114;14.738;2022-07-22T05:22:52;98702.13;;;25.95;46.97
46476;BME280;53376;51.114;14.738;2022-07-22T05:25:23;98705.13;;;26.00;47.27
46476;BME280;53376;51.114;14.738;2022-07-22T05:28:04;98707.16;;;26.06;46.69
46476;BME280;53376;51.114;14.738;2022-07-22T05:30:33;98704.06;;;26.09;46.63
46476;BME280;53376;51.114;14.738;2022-07-22T05:43:46;98721.19;;;26.33;47.09
46476;BME280;53376;51.114;14.738;2022-07-22T05:46:28;98721.25;;;26.39;47.05
46476;BME280;53376;51.114;14.738;2022-07-22T05:48:55;98719.69;;;26.45;46.52
46476;BME280;53376;51.114;14.738;2022-07-22T05:51:49;98720.81;;;26.51;46.65
46476;BME280;53376;51.114;14.738;2022-07-22T05:54:23;98718.16;;;26.58;46.78
46476;BME280;53376;51.114;14.738;2022-07-22T05:57:03;98710.47;;;26.61;46.56
46476;BME280;53376;51.114;14.738;2022-07-22T06:13:05;98706.75;;;26.99;45.37
46476;BME280;53376;51.114;14.738;2022-07-22T06:15:45;98703.94;;;27.07;45.18
46476;BME280;53376;51.114;14.738;2022-07-22T06:18:12;98705.69;;;27.15;45.20
46476;BME280;53376;51.114;14.738;2022-07-22T06:20:52;98704.53;;;27.24;45.03
46476;BME280;53376;51.114;14.738;2022-07-22T06:23:19;98694.34;;;27.33;45.34
46476;BME280;53376;51.114;14.738;2022-07-22T06:26:03;98702.44;;;27.41;44.61
46476;BME280;53376;51.114;14.738;2022-07-22T06:38:51;98709.38;;;27.87;43.82
46476;BME280;53376;51.114;14.738;2022-07-22T06:41:54;98706.28;;;27.97;43.61
46476;BME280;53376;51.114;14.738;2022-07-22T06:44:51;98703.03;;;28.08;43.74
46476;BME280;53376;51.114;14.738;2022-07-22T06:47:48;98704.56;;;28.18;43.20
46476;BME280;53376;51.114;14.738;2022-07-22T06:50:30;98707.81;;;28.28;43.10
46476;BME280;53376;51.114;14.738;2022-07-22T07:06:39;98691.28;;;28.85;41.82
46476;BME280;53376;51.114;14.738;2022-07-22T07:09:48;98695.31;;;28.95;41.83
46476;BME280;53376;51.114;14.738;2022-07-22T07:12:43;98691.53;;;29.03;41.57
46476;BME280;53376;51.114;14.738;2022-07-22T07:15:40;98690.75;;;29.09;41.28
46476;BME280;53376;51.114;14.738;2022-07-22T07:31:55;98687.69;;;29.39;40.55
46476;BME280;53376;51.114;14.738;2022-07-22T07:34:36;98694.41;;;29.43;40.47
46476;BME280;53376;51.114;14.738;2022-07-22T07:37:03;98692.34;;;29.46;41.04
46476;BME280;53376;51.114;14.738;2022-07-22T07:39:48;98695.50;;;29.49;40.57
46476;BME280;53376;51.114;14.738;2022-07-22T07:42:22;98693.59;;;29.50;41.14
46476;BME280;53376;51.114;14.738;2022-07-22T07:45:03;98691.06;;;29.55;41.04
46476;BME280;53376;51.114;14.738;2022-07-22T07:47:33;98697.41;;;29.55;40.86
46476;BME280;53376;51.114;14.738;2022-07-22T07:57:26;98695.91;;;29.53;40.23
46476;BME280;53376;51.114;14.738;2022-07-22T08:00:14;98696.53;;;29.55;40.95
46476;BME280;53376;51.114;14.738;2022-07-22T08:02:58;98702.00;;;29.55;40.96
46476;BME280;53376;51.114;14.738;2022-07-22T08:05:35;98703.69;;;29.56;41.30
46476;BME280;53376;51.114;14.738;2022-07-22T08:08:22;98698.22;;;29.56;41.27
46476;BME280;53376;51.114;14.738;2022-07-22T08:10:59;98692.75;;;29.56;41.09
46476;BME280;53376;51.114;14.738;2022-07-22T08:24:25;98684.31;;;29.51;40.39
46476;BME280;53376;51.114;14.738;2022-07-22T08:27:14;98689.81;;;29.51;40.18
46476;BME280;53376;51.114;14.738;2022-07-22T08:29:49;98695.28;;;29.51;40.31
46476;BME280;53376;51.114;14.738;2022-07-22T08:32:29;98689.78;;;29.57;40.31
46476;BME280;53376;51.114;14.738;2022-07-22T08:34:56;98695.28;;;29.64;40.55
46476;BME280;53376;51.114;14.738;2022-07-22T08:37:40;98692.31;;;29.72;40.12
46476;BME280;53376;51.114;14.738;2022-07-22T08:50:58;98684.56;;;30.16;39.60
46476;BME280;53376;51.114;14.738;2022-07-22T08:54:00;98690.19;;;30.28;39.49
46476;BME280;53376;51.114;14.738;2022-07-22T08:56:40;98689.16;;;30.36;39.38
46476;BME280;53376;51.114;14.738;2022-07-22T08:59:07;98686.41;;;30.36;39.43
46476;BME280;53376;51.114;14.738;2022-07-22T09:02:04;98686.81;;;30.33;39.01
46476;BME280;53376;51.114;14.738;2022-07-22T09:04:53;98682.19;;;30.33;39.02
46476;BME280;53376;51.114;14.738;2022-07-22T09:18:26;98675.19;;;30.58;39.53
46476;BME280;53376;51.114;14.738;2022-07-22T09:21:29;98673.69;;;30.68;39.34
46476;BME280;53376;51.114;14.738;2022-07-22T09:24:28;98674.50;;;30.76;39.64
46476;BME280;53376;51.114;14.738;2022-07-22T09:27:24;98666.66;;;30.79;38.70
46476;BME280;53376;51.114;14.738;2022-07-22T09:30:21;98668.13;;;30.82;38.47
46476;BME280;53376;51.114;14.738;2022-07-22T09:47:31;98668.25;;;31.00;38.04
46476;BME280;53376;51.114;14.738;2022-07-22T09:50:50;98660.44;;;30.97;37.42
46476;BME280;53376;51.114;14.738;2022-07-22T09:53:49;98664.25;;;30.96;37.74
46476;BME280;53376;51.114;14.738;2022-07-22T09:56:28;98662.34;;;30.97;37.56
46476;BME280;53376;51.114;14.738;2022-07-22T10:13:06;98658.22;;;31.26;37.73
46476;BME280;53376;51.114;14.738;2022-07-22T10:15:48;98656.47;;;31.32;37.55
46476;BME280;53376;51.114;14.738;2022-07-22T10:18:32;98654.75;;;31.38;37.46
46476;BME280;53376;51.114;14.738;2022-07-22T10:21:02;98656.84;;;31.42;37.34
46476;BME280;53376;51.114;14.738;2022-07-22T10:24:06;98648.53;;;31.49;37.46
46476;BME280;53376;51.114;14.738;2022-07-22T10:26:52;98648.28;;;31.57;37.19
46476;BME280;53376;51.114;14.738;2022-07-22T10:40:13;98650.25;;;31.75;37.03
46476;BME280;53376;51.114;14.738;2022-07-22T10:43:05;98647.66;;;31.80;36.30
46476;BME280;53376;51.114;14.738;2022-07-22T10:45:45;98636.00;;;31.85;35.96
46476;BME280;53376;51.114;14.738;2022-07-22T10:48:45;98637.25;;;31.89;35.96
46476;BME280;53376;51.114;14.738;2022-07-22T10:51:20;98642.91;;;31.94;35.82
46476;BME280;53376;51.114;14.738;2022-07-22T11:04:45;98648.53;;;32.25;35.45
46476;BME280;53376;51.114;14.738;2022-07-22T11:07:26;98645.56;;;32.26;35.44
46476;BME280;53376;51.114;14.738;2022-07-22T11:09:53;98643.41;;;32.28;35.69
46476;BME280;53376;51.114;14.738;2022-07-22T11:12:35;98642.72;;;32.33;35.39
46476;BME280;53376;51.114;14.738;2022-07-22T11:15:04;98635.31;;;32.34;35.56
46476;BME280;53376;51.114;14.738;2022-07-22T11:17:45;98635.00;;;32.42;35.31
46476;BME280;53376;51.114;14.738;2022-07-22T11:20:14;98632.16;;;32.48;35.02
46476;BME280;53376;51.114;14.738;2022-07-22T11:22:57;98639.72;;;32.53;34.75
46476;BME280;53376;51.114;14.738;2022-07-22T11:32:43;98631.47;;;32.72;34.79
46476;BME280;53376;51.114;14.738;2022-07-22T11:35:33;98633.78;;;32.75;34.77
46476;BME280;53376;51.114;14.738;2022-07-22T11:38:00;98633.63;;;32.70;34.92
46476;BME280;53376;51.114;14.738;2022-07-22T11:40:42;98625.56;;;32.68;34.92
46476;BME280;53376;51.114;14.738;2022-07-22T11:43:09;98623.81;;;32.74;35.11
46476;BME280;53376;51.114;14.738;2022-07-22T11:45:56;98618.25;;;32.81;34.76
46476;BME280;53376;51.114;14.738;2022-07-22T11:58:48;98621.25;;;33.09;34.20
46476;BME280;53376;51.114;14.738;2022-07-22T12:01:29;98608.94;;;33.12;34.04
46476;BME280;53376;51.114;14.738;2022-07-22T12:04:11;98615.38;;;33.18;33.93
46476;BME280;53376;51.114;14.738;2022-07-22T12:06:46;98611.31;;;33.20;34.53
46476;BME280;53376;51.114;14.738;2022-07-22T12:09:31;98614.69;;;33.22;33.95
46476;BME280;53376;51.114;14.738;2022-07-22T12:12:07;98613.00;;;33.21;33.76
46476;BME280;53376;51.114;14.738;2022-07-22T12:25:19;98604.13;;;33.38;33.61
46476;BME280;53376;51.114;14.738;2022-07-22T12:28:03;98606.88;;;33.38;33.91
46476;BME280;53376;51.114;14.738;2022-07-22T12:30:30;98603.97;;;33.33;33.35
46476;BME280;53376;51.114;14.738;2022-07-22T12:33:13;98605.88;;;33.32;33.75
46476;BME280;53376;51.114;14.738;2022-07-22T12:36:02;98601.34;;;33.38;33.80
46476;BME280;53376;51.114;14.738;2022-07-22T12:38:45;98602.56;;;33.42;33.56
46476;BME280;53376;51.114;14.738;2022-07-22T12:41:24;98609.75;;;33.43;33.46
46476;BME280;53376;51.114;14.738;2022-07-22T12:54:41;98596.97;;;33.18;33.82
46476;BME280;53376;51.114;14.738;2022-07-22T12:57:23;98588.59;;;33.13;33.49
46476;BME280;53376;51.114;14.738;2022-07-22T12:59:52;98581.84;;;33.09;33.61
46476;BME280;53376;51.114;14.738;2022-07-22T13:02:32;98590.00;;;33.04;33.93
46476;BME280;53376;51.114;14.738;2022-07-22T13:05:13;98585.19;;;32.99;33.88
46476;BME280;53376;51.114;14.738;2022-07-22T13:07:55;98592.69;;;32.92;33.22
46476;BME280;53376;51.114;14.738;2022-07-22T13:20:39;98593.03;;;32.84;34.33
46476;BME280;53376;51.114;14.738;2022-07-22T13:23:20;98586.84;;;32.88;34.25
46476;BME280;53376;51.114;14.738;2022-07-22T13:26:00;98601.66;;;32.87;33.84
46476;BME280;53376;51.114;14.738;2022-07-22T13:28:27;98592.34;;;32.88;33.94
46476;BME280;53376;51.114;14.738;2022-07-22T13:31:09;98595.94;;;32.89;33.70
46476;BME280;53376;51.114;14.738;2022-07-22T13:47:18;98574.72;;;32.77;34.55
46476;BME280;53376;51.114;14.738;2022-07-22T13:50:01;98584.88;;;32.77;33.98
46476;BME280;53376;51.114;14.738;2022-07-22T13:52:28;98578.53;;;32.76;34.53
46476;BME280;53376;51.114;14.738;2022-07-22T13:55:08;98584.88;;;32.77;33.97
46476;BME280;53376;51.114;14.738;2022-07-22T13:57:36;98583.56;;;32.79;33.97
46476;BME280;53376;51.114;14.738;2022-07-22T14:00:16;98574.22;;;32.81;33.73
46476;BME280;53376;51.114;14.738;2022-07-22T14:02:46;98574.38;;;32.86;34.45
46476;BME280;53376;51.114;14.738;2022-07-22T14:12:31;98565.78;;;32.82;33.77
46476;BME280;53376;51.114;14.738;2022-07-22T14:15:12;98567.41;;;32.83;33.09
46476;BME280;53376;51.114;14.738;2022-07-22T14:17:54;98562.66;;;32.90;34.36
46476;BME280;53376;51.114;14.738;2022-07-22T14:20:21;98562.34;;;32.99;33.96
46476;BME280;53376;51.114;14.738;2022-07-22T14:23:02;98567.50;;;33.07;33.50
46476;BME280;53376;51.114;14.738;2022-07-22T14:25:30;98561.28;;;33.11;34.16
46476;BME280;53376;51.114;14.738;2022-07-22T14:38:47;98564.69;;;33.25;33.37
46476;BME280;53376;51.114;14.738;2022-07-22T14:41:28;98567.66;;;33.24;33.10
46476;BME280;53376;51.114;14.738;2022-07-22T14:43:55;98566.81;;;33.23;33.35
46476;BME280;53376;51.114;14.738;2022-07-22T14:46:35;98566.81;;;33.23;32.99
46476;BME280;53376;51.114;14.738;2022-07-22T14:49:02;98561.88;;;33.14;32.19
46476;BME280;53376;51.114;14.738;2022-07-22T14:51:48;98560.41;;;32.99;31.72
46476;BME280;53376;51.114;14.738;2022-07-22T15:07:56;98547.44;;;32.76;32.98
46476;BME280;53376;51.114;14.738;2022-07-22T15:10:35;98544.84;;;32.81;33.45
46476;BME280;53376;51.114;14.738;2022-07-22T15:13:02;98540.66;;;32.90;32.98
46476;BME280;53376;51.114;14.738;2022-07-22T15:15:37;98545.22;;;32.97;33.16
46476;BME280;53376;51.114;14.738;2022-07-22T15:18:17;98545.50;;;33.07;33.75
46476;BME280;53376;51.114;14.738;2022-07-22T15:20:44;98540.25;;;33.17;33.63
46476;BME280;53376;51.114;14.738;2022-07-22T15:33:55;98527.72;;;33.45;32.50
46476;BME280;53376;51.114;14.738;2022-07-22T15:36:32;98527.84;;;33.50;32.63
46476;BME280;53376;51.114;14.738;2022-07-22T15:39:00;98530.22;;;33.58;32.92
46476;BME280;53376;51.114;14.738;2022-07-22T15:41:35;98541.97;;;33.66;32.41
46476;BME280;53376;51.114;14.738;2022-07-22T15:44:16;98526.75;;;33.75;32.30
46476;BME280;53376;51.114;14.738;2022-07-22T15:46:43;98526.50;;;33.77;32.01
46476;BME280;53376;51.114;14.738;2022-07-22T15:59:54;98521.81;;;34.01;31.68
46476;BME280;53376;51.114;14.738;2022-07-22T16:02:40;98512.00;;;34.05;31.98
46476;BME280;53376;51.114;14.738;2022-07-22T16:05:15;98515.69;;;34.11;31.93
46476;BME280;53376;51.114;14.738;2022-07-22T16:07:56;98508.00;;;34.13;31.79
46476;BME280;53376;51.114;14.738;2022-07-22T16:10:24;98513.88;;;34.16;31.58
46476;BME280;53376;51.114;14.738;2022-07-22T16:13:04;98509.53;;;34.20;32.13
46476;BME280;53376;51.114;14.738;2022-07-22T16:26:30;98500.97;;;34.34;31.33
46476;BME280;53376;51.114;14.738;2022-07-22T16:29:11;98495.47;;;34.34;30.67
46476;BME280;53376;51.114;14.738;2022-07-22T16:31:51;98499.94;;;34.35;30.96
46476;BME280;53376;51.114;14.738;2022-07-22T16:34:18;98503.28;;;34.37;30.68
46476;BME280;53376;51.114;14.738;2022-07-22T16:37:02;98502.78;;;34.40;30.95
46476;BME280;53376;51.114;14.738;2022-07-22T16:39:29;98505.06;;;34.43;30.74
46476;BME280;53376;51.114;14.738;2022-07-22T16:42:11;98504.56;;;34.46;31.04
46476;BME280;53376;51.114;14.738;2022-07-22T16:54:52;98496.00;;;34.60;30.75
46476;BME280;53376;51.114;14.738;2022-07-22T16:57:35;98490.00;;;34.63;30.53
46476;BME280;53376;51.114;14.738;2022-07-22T17:00:15;98487.53;;;34.66;30.60
46476;BME280;53376;51.114;14.738;2022-07-22T17:02:43;98490.06;;;34.68;30.46
46476;BME280;53376;51.114;14.738;2022-07-22T17:05:23;98490.63;;;34.70;30.33
46476;BME280;53376;51.114;14.738;2022-07-22T17:07:50;98488.00;;;34.75;30.03
46476;BME280;53376;51.114;14.738;2022-07-22T17:21:03;98477.66;;;35.16;29.49
46476;BME280;53376;51.114;14.738;2022-07-22T17:23:43;98486.03;;;35.39;28.76
46476;BME280;53376;51.114;14.738;2022-07-22T17:26:10;98478.63;;;35.61;28.80
46476;BME280;53376;51.114;14.738;2022-07-22T17:28:50;98480.41;;;35.90;28.47
46476;BME280;53376;51.114;14.738;2022-07-22T17:31:17;98474.28;;;36.10;28.38
46476;BME280;53376;51.114;14.738;2022-07-22T17:47:54;98478.88;;;35.99;28.02
46476;BME280;53376;51.114;14.738;2022-07-22T17:50:35;98485.63;;;35.69;27.95
46476;BME280;53376;51.114;14.738;2022-07-22T17:53:15;98480.41;;;35.33;28.20
46476;BME280;53376;51.114;14.738;2022-07-22T17:55:42;98478.25;;;35.01;28.77
46476;BME280;53376;51.114;14.738;2022-07-22T17:58:43;98470.25;;;34.71;29.38
46476;BME280;53376;51.114;14.738;2022-07-22T18:01:10;98469.78;;;34.45;29.58
46476;BME280;53376;51.114;14.738;2022-07-22T18:14:21;98467.50;;;33.37;30.84
46476;BME280;53376;51.114;14.738;2022-07-22T18:17:02;98469.50;;;33.18;30.68
46476;BME280;53376;51.114;14.738;2022-07-22T18:19:29;98460.63;;;33.04;31.14
46476;BME280;53376;51.114;14.738;2022-07-22T18:22:10;98460.63;;;32.92;31.20
46476;BME280;53376;51.114;14.738;2022-07-22T18:24:37;98459.53;;;32.81;31.34
46476;BME280;53376;51.114;14.738;2022-07-22T18:27:17;98467.47;;;32.71;31.96
46476;BME280;53376;51.114;14.738;2022-07-22T18:40:14;98449.16;;;32.22;32.83
46476;BME280;53376;51.114;14.738;2022-07-22T18:42:54;98451.13;;;32.15;33.15
46476;BME280;53376;51.114;14.738;2022-07-22T18:45:35;98450.84;;;32.05;33.44
46476;BME280;53376;51.114;14.738;2022-07-22T18:48:02;98455.59;;;31.97;33.46
46476;BME280;53376;51.114;14.738;2022-07-22T18:50:43;98454.84;;;31.90;33.39
46476;BME280;53376;51.114;14.738;2022-07-22T19:06:51;98475.56;;;31.49;33.54
46476;BME280;53376;51.114;14.738;2022-07-22T19:09:32;98472.66;;;31.44;34.14
46476;BME280;53376;51.114;14.738;2022-07-22T19:11:59;98472.28;;;31.40;34.02
46476;BME280;53376;51.114;14.738;2022-07-22T19:14:39;98476.59;;;31.29;34.34
46476;BME280;53376;51.114;14.738;2022-07-22T19:17:06;98475.38;;;31.25;34.00
46476;BME280;53376;51.114;14.738;2022-07-22T19:19:46;98476.28;;;31.19;34.12
46476;BME280;53376;51.114;14.738;2022-07-22T19:22:27;98480.75;;;31.13;34.16
46476;BME280;53376;51.114;14.738;2022-07-22T19:35:37;98482.28;;;31.02;34.67
46476;BME280;53376;51.114;14.738;2022-07-22T19:38:20;98491.22;;;30.98;34.75
46476;BME280;53376;51.114;14.738;2022-07-22T19:40:47;98493.56;;;30.94;34.27
46476;BME280;53376;51.114;14.738;2022-07-22T19:43:28;98502.69;;;30.88;34.30
46476;BME280;53376;51.114;14.738;2022-07-22T19:45:55;98495.94;;;30.84;34.62
46476;BME280;53376;51.114;14.738;2022-07-22T20:02:38;98508.31;;;30.68;35.38
46476;BME280;53376;51.114;14.738;2022-07-22T20:05:13;98510.44;;;30.66;35.65
46476;BME280;53376;51.114;14.738;2022-07-22T20:07:53;98508.75;;;30.65;35.64
46476;BME280;53376;51.114;14.738;2022-07-22T20:10:20;98507.91;;;30.64;35.52
46476;BME280;53376;51.114;14.738;2022-07-22T20:13:02;98515.94;;;30.59;35.56
46476;BME280;53376;51.114;14.738;2022-07-22T20:29:12;98522.53;;;30.45;36.38
46476;BME280;53376;51.114;14.738;2022-07-22T20:31:59;98522.13;;;30.41;36.26
46476;BME280;53376;51.114;14.738;2022-07-22T20:34:33;98521.72;;;30.37;36.55
46476;BME280;53376;51.114;14.738;2022-07-22T20:37:13;98532.28;;;30.34;36.23
46476;BME280;53376;51.114;14.738;2022-07-22T20:39:40;98526.41;;;30.30;36.33
46476;BME280;53376;51.114;14.738;2022-07-22T20:42:21;98530.66;;;30.26;36.51
46476;BME280;53376;51.114;14.738;2022-07-22T20:55:21;98523.34;;;30.06;36.62
46476;BME280;53376;51.114;14.738;2022-07-22T20:58:01;98527.59;;;30.02;36.77
46476;BME280;53376;51.114;14.738;2022-07-22T21:00:41;98530.75;;;29.99;36.80
46476;BME280;53376;51.114;14.738;2022-07-22T21:03:08;98530.97;;;29.98;36.77
46476;BME280;53376;51.114;14.738;2022-07-22T21:05:49;98543.19;;;29.95;37.24
46476;BME280;53376;51.114;14.738;2022-07-22T21:21:57;98555.41;;;29.72;37.04
46476;BME280;53376;51.114;14.738;2022-07-22T21:24:38;98555.88;;;29.69;37.28
46476;BME280;53376;51.114;14.738;2022-07-22T21:27:05;98574.38;;;29.67;37.28
46476;BME280;53376;51.114;14.738;2022-07-22T21:29:45;98570.19;;;29.65;37.33
46476;BME280;53376;51.114;14.738;2022-07-22T21:32:13;98566.81;;;29.63;37.52
46476;BME280;53376;51.114;14.738;2022-07-22T21:34:53;98569.34;;;29.64;37.39
46476;BME280;53376;51.114;14.738;2022-07-22T21:37:22;98565.97;;;29.62;37.61
46476;BME280;53376;51.114;14.738;2022-07-22T21:47:07;98565.13;;;29.55;37.61
46476;BME280;53376;51.114;14.738;2022-07-22T21:49:48;98575.47;;;29.53;37.60
46476;BME280;53376;51.114;14.738;2022-07-22T21:52:30;98562.19;;;29.50;37.24
46476;BME280;53376;51.114;14.738;2022-07-22T21:54:57;98569.78;;;29.48;37.86
46476;BME280;53376;51.114;14.738;2022-07-22T21:57:40;98565.56;;;29.45;37.65
46476;BME280;53376;51.114;14.738;2022-07-22T22:00:09;98565.16;;;29.41;37.60
46476;BME280;53376;51.114;14.738;2022-07-22T22:02:50;98558.19;;;29.39;37.61
46476;BME280;53376;51.114;14.738;2022-07-22T22:15:33;98563.44;;;29.27;37.59
46476;BME280;53376;51.114;14.738;2022-07-22T22:18:16;98563.25;;;29.22;37.92
46476;BME280;53376;51.114;14.738;2022-07-22T22:21:00;98564.69;;;29.18;37.66
46476;BME280;53376;51.114;14.738;2022-07-22T22:23:27;98570.59;;;29.15;37.96
46476;BME280;53376;51.114;14.738;2022-07-22T22:26:08;98569.97;;;29.13;37.89
46476;BME280;53376;51.114;14.738;2022-07-22T22:42:16;98557.94;;;29.00;38.55
46476;BME280;53376;51.114;14.738;2022-07-22T22:44:57;98563.63;;;28.99;37.97
46476;BME280;53376;51.114;14.738;2022-07-22T22:47:24;98563.22;;;28.95;38.06
46476;BME280;53376;51.114;14.738;2022-07-22T22:50:05;98559.63;;;28.94;38.27
46476;BME280;53376;51.114;14.738;2022-07-22T22:52:33;98553.53;;;28.92;38.36
46476;BME280;53376;51.114;14.738;2022-07-22T22:55:14;98546.78;;;28.88;38.01
46476;BME280;53376;51.114;14.738;2022-07-22T22:57:43;98544.69;;;28.84;38.36
46476;BME280;53376;51.114;14.738;2022-07-22T23:07:30;98546.78;;;28.75;38.65
46476;BME280;53376;51.114;14.738;2022-07-22T23:10:11;98546.53;;;28.70;39.02
46476;BME280;53376;51.114;14.738;2022-07-22T23:12:53;98538.56;;;28.68;38.71
46476;BME280;53376;51.114;14.738;2022-07-22T23:15:33;98531.16;;;28.62;38.78
46476;BME280;53376;51.114;14.738;2022-07-22T23:18:13;98529.44;;;28.61;38.95
46476;BME280;53376;51.114;14.738;2022-07-22T23:20:41;98528.84;;;28.59;38.86
46476;BME280;53376;51.114;14.738;2022-07-22T23:33:53;98512.63;;;28.51;39.24
46476;BME280;53376;51.114;14.738;2022-07-22T23:36:34;98515.75;;;28.47;38.85